AMN weather

Gratiot Community Airport
Alma, Michigan, United States

Public forecast

Using degrees Fahrenheit for public forecast. Weather courtesy of forecast.io.

Current aviation weather report (METAR) for Gratiot Community Airport

Retrieved 2019/11/22 01:36 UTC (0 seconds ago):

KAMN 220136Z AUTO 28013G23KT 10SM OVC013 07/05 A2972 RMK AO2 T00720046

Closest aviation forecast (TAF) to Gratiot Community Airport

Closest forecast is MBS International Airport, 29.4 nm (54.4 km) ENE. Retrieved 2019-11-22 00:30 UTC (49 minutes ago):

TAF KMBS 212327Z 2200/2224 23018G28KT 5SM -DZ OVC006 FM220100 29018G28KT P6SM BKN008 OVC010 FM220300 29018G27KT P6SM OVC014 FM220800 30014G24KT P6SM OVC028 FM221400 31012G18KT P6SM SCT028 BKN035 FM222200 29010KT P6SM SCT030